This is the latest recevied weather packets stored in our database for station/object OE-11373. If no packets are shown the sender has not sent any weather packets the latest 10 day(s).
| Time | Temp. | Humidity | Pressure | Rain* | Wind** | Luminosity | Snow |
|---|---|---|---|---|---|---|---|
| 1787652312 | 12.78° C | 87% | 847.1 hPa | - | - | - | - |
| 1787651712 | 12.78° C | 87% | 847.2 hPa | - | - | - | - |
| 1787650886 | 12.78° C | 88% | 847.3 hPa | - | - | - | - |
| 1787650513 | 12.22° C | 88% | 847.1 hPa | - | - | - | - |
| 1787649913 | 12.22° C | 90% | 847.1 hPa | - | - | - | - |
| 1787649085 | 12.78° C | 89% | 847 hPa | - | - | - | - |
| 1787648713 | 12.78° C | 89% | 846.8 hPa | - | - | - | - |
| 1787648113 | 12.78° C | 88% | 846.8 hPa | - | - | - | - |
| 1787647285 | 13.33° C | 83% | 847.2 hPa | - | - | - | - |
| 1787646913 | 13.89° C | 79% | 847.3 hPa | - | - | - | - |
| 1787646313 | 12.22° C | 88% | 847 hPa | - | - | - | - |
| 1787645485 | 15° C | 73% | 847 hPa | - | - | - | - |
| 1787645113 | 17.78° C | 56% | 847 hPa | - | - | - | - |
| 1787644513 | 17.78° C | 58% | 846.8 hPa | - | - | - | - |
| 1787643686 | 17.78° C | 58% | 846.6 hPa | - | - | - | - |
| 1787643313 | 17.22° C | 59% | 846.5 hPa | - | - | - | - |
| 1787642713 | 17.22° C | 59% | 846.3 hPa | - | - | - | - |
| 1787641886 | 17.22° C | 60% | 846.3 hPa | - | - | - | - |
| 1787641512 | 17.22° C | 58% | 846.2 hPa | - | - | - | - |
| 1787640912 | 17.78° C | 57% | 846.1 hPa | - | - | - | - |
| 1787640086 | 17.22° C | 58% | 846.1 hPa | - | - | - | - |
| 1787639712 | 17.22° C | 58% | 846.1 hPa | - | - | - | - |
| 1787639113 | 17.22° C | 58% | 846.1 hPa | - | - | - | - |
| 1787638285 | 17.22° C | 57% | 846.1 hPa | - | - | - | - |
| 1787637913 | 17.22° C | 58% | 846.1 hPa | - | - | - | - |
* Rain since midnight (hover to see other rain measurements)
** Current wind speed in m/s (hover to see current wind gust speed)